LiveATC.Net - Listen to live air traffic control over the Internet! Contact LiveATC.net for advertising information


ICAO: LTAC  IATA: ESB   Airport: Esenboga International Airport
City: Ankara
Country: Turkey   Continent: Asia
LTAC METAR Weather: LTAC 160920Z VRB06KT 9999 SCT040 17/02 Q1015 NOSIG
LTAC Flight Activity (FlightAware)
LTAC Tower/Approach
Feed Status: DOWN
Last heard on: 2014-01-02 12:52:04 (103 days 21 hours 18 minutes ago)
LTAC Tower/Approach Audio Archives
FacilityFrequency
Ankara Approach119.600
Ankara Approach (Center)131.050
Ankara Approach (Upper)132.150
Ankara Approach (West)120.600
Ankara Approach (West)128.800
Ankara Approach (West/Upper)128.450
Esenboga Tower118.100


NOTICE

Unauthorized use prohibited. See LiveATC.net Terms of Service


Find LiveATC Audio Streams


Airport/ARTCC Code

Frequency
(e.g., 124.400, 128.75)
Site-wide search

Browse LiveATC Feeds
LiveATC Coverage Map
Top 50 LiveATC Feeds
Bad Weather Areas

LiveATC FAQ
Offer a LiveATC Feed
Contact LiveATC.net
Press Inquiries

LiveATC on iPhone
LiveATC on Android

LiveATC Mobile
(Mobile browser)

ATC Audio Archives
Interesting Recordings

LiveATC Forums


Home Page
About LiveATC.net
Make a Donation
LiveATC Bookstore

Terms of Use
Privacy Policy

ATC/Radar Sites
U.S. ARTCC Freqs
Canadian Air Freqs

AIRMETs/SIGMETs

FAA Airport Status
Nat'l Airspace Status
Arrival Demand Charts


Server Software By:
Icecast.org
Liquidsoap

Please make a donation to help us keep growing!